sensor_id;sensor_type;location;lat;lon;timestamp;pressure;altitude;pressure_sealevel;temperature;humidity
5954;BME280;3002;42.642;24.812;2023-06-26T00:02:11;96062.78;;;23.46;100.00
5954;BME280;3002;42.642;24.812;2023-06-26T00:04:36;96055.75;;;23.49;100.00
5954;BME280;3002;42.642;24.812;2023-06-26T00:07:04;96059.03;;;23.69;100.00
5954;BME280;3002;42.642;24.812;2023-06-26T00:09:30;96059.88;;;23.21;100.00
5954;BME280;3002;42.642;24.812;2023-06-26T00:11:55;96062.56;;;23.18;100.00
5954;BME280;3002;42.642;24.812;2023-06-26T00:14:21;96056.91;;;22.96;100.00
5954;BME280;3002;42.642;24.812;2023-06-26T00:16:47;96061.97;;;23.42;100.00
5954;BME280;3002;42.642;24.812;2023-06-26T00:19:15;96064.50;;;23.69;100.00
5954;BME280;3002;42.642;24.812;2023-06-26T00:21:40;96061.88;;;23.32;100.00
5954;BME280;3002;42.642;24.812;2023-06-26T00:24:06;96063.88;;;22.90;100.00
5954;BME280;3002;42.642;24.812;2023-06-26T00:26:31;96066.22;;;22.88;100.00
5954;BME280;3002;42.642;24.812;2023-06-26T00:28:57;96066.41;;;23.10;100.00
5954;BME280;3002;42.642;24.812;2023-06-26T00:31:22;96060.56;;;23.11;100.00
5954;BME280;3002;42.642;24.812;2023-06-26T00:33:48;96052.81;;;22.80;100.00
5954;BME280;3002;42.642;24.812;2023-06-26T00:36:13;96046.59;;;22.83;100.00
5954;BME280;3002;42.642;24.812;2023-06-26T00:38:39;96039.31;;;22.94;100.00
5954;BME280;3002;42.642;24.812;2023-06-26T00:41:05;96050.75;;;23.07;100.00
5954;BME280;3002;42.642;24.812;2023-06-26T00:43:37;96049.13;;;22.99;100.00
5954;BME280;3002;42.642;24.812;2023-06-26T00:46:02;96059.56;;;22.89;100.00
5954;BME280;3002;42.642;24.812;2023-06-26T00:48:28;96054.41;;;22.81;100.00
5954;BME280;3002;42.642;24.812;2023-06-26T00:50:54;96037.34;;;22.94;100.00
5954;BME280;3002;42.642;24.812;2023-06-26T00:53:21;96046.78;;;23.01;100.00
5954;BME280;3002;42.642;24.812;2023-06-26T00:55:47;96032.25;;;22.52;100.00
5954;BME280;3002;42.642;24.812;2023-06-26T00:58:12;96026.16;;;22.69;100.00
5954;BME280;3002;42.642;24.812;2023-06-26T01:00:38;96029.53;;;22.93;100.00
5954;BME280;3002;42.642;24.812;2023-06-26T01:03:04;96015.34;;;22.80;100.00
5954;BME280;3002;42.642;24.812;2023-06-26T01:05:29;96034.38;;;23.10;100.00
5954;BME280;3002;42.642;24.812;2023-06-26T01:07:57;96037.47;;;22.68;100.00
5954;BME280;3002;42.642;24.812;2023-06-26T01:10:23;96014.13;;;22.78;100.00
5954;BME280;3002;42.642;24.812;2023-06-26T01:12:49;96032.63;;;22.88;100.00
5954;BME280;3002;42.642;24.812;2023-06-26T01:15:15;96014.72;;;22.57;100.00
5954;BME280;3002;42.642;24.812;2023-06-26T01:17:40;96029.16;;;22.94;100.00
5954;BME280;3002;42.642;24.812;2023-06-26T01:20:10;96027.25;;;22.99;100.00
5954;BME280;3002;42.642;24.812;2023-06-26T01:22:37;96026.97;;;23.14;100.00
5954;BME280;3002;42.642;24.812;2023-06-26T01:28:13;96044.97;;;22.78;100.00
5954;BME280;3002;42.642;24.812;2023-06-26T01:30:42;96043.16;;;22.89;100.00
5954;BME280;3002;42.642;24.812;2023-06-26T01:33:10;96030.84;;;22.69;100.00
5954;BME280;3002;42.642;24.812;2023-06-26T01:35:36;96039.72;;;22.96;100.00
5954;BME280;3002;42.642;24.812;2023-06-26T01:38:19;96047.25;;;22.69;100.00
5954;BME280;3002;42.642;24.812;2023-06-26T01:40:45;96043.22;;;22.93;100.00
5954;BME280;3002;42.642;24.812;2023-06-26T01:43:36;96037.31;;;22.91;100.00
5954;BME280;3002;42.642;24.812;2023-06-26T01:46:14;96042.09;;;22.98;100.00
5954;BME280;3002;42.642;24.812;2023-06-26T01:51:46;96033.16;;;22.26;100.00
5954;BME280;3002;42.642;24.812;2023-06-26T01:54:18;96026.41;;;22.54;100.00
5954;BME280;3002;42.642;24.812;2023-06-26T01:56:45;96022.72;;;22.76;100.00
5954;BME280;3002;42.642;24.812;2023-06-26T01:59:14;96025.13;;;22.85;100.00
5954;BME280;3002;42.642;24.812;2023-06-26T02:01:40;96014.38;;;23.03;100.00
5954;BME280;3002;42.642;24.812;2023-06-26T02:04:05;96008.47;;;22.97;100.00
5954;BME280;3002;42.642;24.812;2023-06-26T02:06:31;96022.47;;;22.88;100.00
5954;BME280;3002;42.642;24.812;2023-06-26T02:08:56;96024.25;;;22.74;100.00
5954;BME280;3002;42.642;24.812;2023-06-26T02:11:22;96044.72;;;22.90;100.00
5954;BME280;3002;42.642;24.812;2023-06-26T02:13:48;96029.41;;;22.82;100.00
5954;BME280;3002;42.642;24.812;2023-06-26T02:16:13;96014.19;;;22.85;100.00
5954;BME280;3002;42.642;24.812;2023-06-26T02:18:39;96032.03;;;23.12;100.00
5954;BME280;3002;42.642;24.812;2023-06-26T02:21:06;96022.53;;;22.58;100.00
5954;BME280;3002;42.642;24.812;2023-06-26T02:23:32;96011.22;;;22.60;100.00
5954;BME280;3002;42.642;24.812;2023-06-26T02:25:57;96002.84;;;22.83;100.00
5954;BME280;3002;42.642;24.812;2023-06-26T02:28:23;96020.50;;;22.89;100.00
5954;BME280;3002;42.642;24.812;2023-06-26T02:30:48;96007.84;;;22.74;100.00
5954;BME280;3002;42.642;24.812;2023-06-26T02:33:14;96021.16;;;22.38;100.00
5954;BME280;3002;42.642;24.812;2023-06-26T02:35:39;96020.56;;;22.55;100.00
5954;BME280;3002;42.642;24.812;2023-06-26T02:38:05;96007.31;;;22.57;100.00
5954;BME280;3002;42.642;24.812;2023-06-26T02:40:30;96017.69;;;22.41;100.00
5954;BME280;3002;42.642;24.812;2023-06-26T02:42:56;96021.72;;;22.17;100.00
5954;BME280;3002;42.642;24.812;2023-06-26T02:45:21;96025.41;;;22.35;100.00
5954;BME280;3002;42.642;24.812;2023-06-26T02:47:46;96026.72;;;22.45;100.00
5954;BME280;3002;42.642;24.812;2023-06-26T02:50:12;96011.38;;;22.37;100.00
5954;BME280;3002;42.642;24.812;2023-06-26T02:52:37;96007.06;;;22.32;100.00
5954;BME280;3002;42.642;24.812;2023-06-26T02:55:04;96024.19;;;22.29;100.00
5954;BME280;3002;42.642;24.812;2023-06-26T02:57:30;96014.28;;;22.51;100.00
5954;BME280;3002;42.642;24.812;2023-06-26T02:59:56;96016.22;;;22.51;100.00
5954;BME280;3002;42.642;24.812;2023-06-26T03:02:21;96035.59;;;22.76;100.00
5954;BME280;3002;42.642;24.812;2023-06-26T03:04:47;96013.94;;;22.19;100.00
5954;BME280;3002;42.642;24.812;2023-06-26T03:07:12;96041.16;;;22.46;100.00
5954;BME280;3002;42.642;24.812;2023-06-26T03:09:37;96042.94;;;22.68;100.00
5954;BME280;3002;42.642;24.812;2023-06-26T03:12:03;96044.19;;;22.78;100.00
5954;BME280;3002;42.642;24.812;2023-06-26T03:14:29;96044.47;;;22.28;100.00
5954;BME280;3002;42.642;24.812;2023-06-26T03:16:55;96044.53;;;22.32;100.00
5954;BME280;3002;42.642;24.812;2023-06-26T03:19:23;96040.38;;;22.49;100.00
5954;BME280;3002;42.642;24.812;2023-06-26T03:21:48;96041.63;;;22.55;100.00
5954;BME280;3002;42.642;24.812;2023-06-26T03:24:14;96042.91;;;22.64;100.00
5954;BME280;3002;42.642;24.812;2023-06-26T03:26:39;96041.81;;;22.73;100.00
5954;BME280;3002;42.642;24.812;2023-06-26T03:29:05;96041.00;;;22.68;100.00
5954;BME280;3002;42.642;24.812;2023-06-26T03:31:30;96041.34;;;22.67;100.00
5954;BME280;3002;42.642;24.812;2023-06-26T03:33:56;96047.84;;;22.52;100.00
5954;BME280;3002;42.642;24.812;2023-06-26T03:36:21;96047.06;;;22.88;100.00
5954;BME280;3002;42.642;24.812;2023-06-26T03:38:47;96039.75;;;23.00;100.00
5954;BME280;3002;42.642;24.812;2023-06-26T03:41:12;96027.44;;;22.79;100.00
5954;BME280;3002;42.642;24.812;2023-06-26T03:43:38;96031.28;;;22.75;100.00
5954;BME280;3002;42.642;24.812;2023-06-26T03:46:03;96037.38;;;22.61;100.00
5954;BME280;3002;42.642;24.812;2023-06-26T03:48:29;96049.75;;;22.48;100.00
5954;BME280;3002;42.642;24.812;2023-06-26T03:50:54;96016.28;;;22.21;100.00
5954;BME280;3002;42.642;24.812;2023-06-26T03:53:20;96038.22;;;22.28;100.00
5954;BME280;3002;42.642;24.812;2023-06-26T03:55:45;96023.19;;;22.11;100.00
5954;BME280;3002;42.642;24.812;2023-06-26T03:58:11;96037.91;;;22.33;100.00
5954;BME280;3002;42.642;24.812;2023-06-26T04:00:36;96036.22;;;22.58;100.00
5954;BME280;3002;42.642;24.812;2023-06-26T04:03:02;96021.88;;;22.68;100.00
5954;BME280;3002;42.642;24.812;2023-06-26T04:05:28;96022.13;;;22.93;100.00
5954;BME280;3002;42.642;24.812;2023-06-26T04:07:53;95993.25;;;23.00;100.00
5954;BME280;3002;42.642;24.812;2023-06-26T04:10:19;96033.59;;;22.69;100.00
5954;BME280;3002;42.642;24.812;2023-06-26T04:12:46;96031.97;;;22.27;100.00
5954;BME280;3002;42.642;24.812;2023-06-26T04:15:12;96042.34;;;22.85;100.00
5954;BME280;3002;42.642;24.812;2023-06-26T04:17:37;96055.53;;;23.17;100.00
5954;BME280;3002;42.642;24.812;2023-06-26T04:20:03;96028.75;;;22.92;100.00
5954;BME280;3002;42.642;24.812;2023-06-26T04:22:32;96030.22;;;22.86;100.00
5954;BME280;3002;42.642;24.812;2023-06-26T04:25:00;96054.44;;;23.32;100.00
5954;BME280;3002;42.642;24.812;2023-06-26T04:27:25;96032.53;;;23.25;100.00
5954;BME280;3002;42.642;24.812;2023-06-26T04:29:51;96054.34;;;23.18;100.00
5954;BME280;3002;42.642;24.812;2023-06-26T04:32:16;96049.38;;;23.31;100.00
5954;BME280;3002;42.642;24.812;2023-06-26T04:34:42;96057.63;;;23.34;100.00
5954;BME280;3002;42.642;24.812;2023-06-26T04:37:10;96029.41;;;23.27;100.00
5954;BME280;3002;42.642;24.812;2023-06-26T04:39:36;96041.25;;;23.41;100.00
5954;BME280;3002;42.642;24.812;2023-06-26T04:42:04;96046.97;;;23.22;100.00
5954;BME280;3002;42.642;24.812;2023-06-26T04:44:32;96046.19;;;23.21;100.00
5954;BME280;3002;42.642;24.812;2023-06-26T04:46:58;96047.81;;;23.30;100.00
5954;BME280;3002;42.642;24.812;2023-06-26T04:49:24;96043.75;;;23.09;100.00
5954;BME280;3002;42.642;24.812;2023-06-26T04:51:54;96049.63;;;23.66;100.00
5954;BME280;3002;42.642;24.812;2023-06-26T04:54:20;96054.38;;;23.69;100.00
5954;BME280;3002;42.642;24.812;2023-06-26T04:56:45;96060.28;;;23.79;100.00
5954;BME280;3002;42.642;24.812;2023-06-26T04:59:12;96052.69;;;23.58;100.00
5954;BME280;3002;42.642;24.812;2023-06-26T05:01:39;96057.84;;;23.66;100.00
5954;BME280;3002;42.642;24.812;2023-06-26T05:04:09;96020.75;;;23.17;100.00
5954;BME280;3002;42.642;24.812;2023-06-26T05:06:38;96016.88;;;23.22;100.00
5954;BME280;3002;42.642;24.812;2023-06-26T05:09:03;96055.66;;;23.35;100.00
5954;BME280;3002;42.642;24.812;2023-06-26T05:11:29;96069.88;;;23.51;100.00
5954;BME280;3002;42.642;24.812;2023-06-26T05:13:54;96058.41;;;23.35;100.00
5954;BME280;3002;42.642;24.812;2023-06-26T05:16:20;96065.97;;;23.56;100.00
5954;BME280;3002;42.642;24.812;2023-06-26T05:18:45;96074.53;;;23.50;100.00
5954;BME280;3002;42.642;24.812;2023-06-26T05:21:11;96071.50;;;23.63;100.00
5954;BME280;3002;42.642;24.812;2023-06-26T05:23:37;96079.75;;;23.18;100.00
5954;BME280;3002;42.642;24.812;2023-06-26T05:26:03;96088.63;;;23.53;100.00
5954;BME280;3002;42.642;24.812;2023-06-26T05:28:30;96082.06;;;23.13;100.00
5954;BME280;3002;42.642;24.812;2023-06-26T05:31:01;96087.38;;;23.43;100.00
5954;BME280;3002;42.642;24.812;2023-06-26T05:33:28;96085.72;;;23.83;100.00
5954;BME280;3002;42.642;24.812;2023-06-26T05:35:54;96079.13;;;23.87;100.00
5954;BME280;3002;42.642;24.812;2023-06-26T05:38:20;96086.00;;;23.63;100.00
5954;BME280;3002;42.642;24.812;2023-06-26T05:40:46;96091.31;;;24.04;100.00
5954;BME280;3002;42.642;24.812;2023-06-26T05:43:12;96091.94;;;24.42;100.00
5954;BME280;3002;42.642;24.812;2023-06-26T05:45:37;96090.72;;;24.36;100.00
5954;BME280;3002;42.642;24.812;2023-06-26T05:48:03;96089.13;;;24.35;100.00
5954;BME280;3002;42.642;24.812;2023-06-26T05:50:29;96095.84;;;24.51;100.00
5954;BME280;3002;42.642;24.812;2023-06-26T05:52:55;96091.84;;;24.31;100.00
5954;BME280;3002;42.642;24.812;2023-06-26T05:55:21;96089.59;;;24.47;100.00
5954;BME280;3002;42.642;24.812;2023-06-26T05:57:46;96092.31;;;24.44;100.00
5954;BME280;3002;42.642;24.812;2023-06-26T06:00:13;96097.84;;;24.62;100.00
5954;BME280;3002;42.642;24.812;2023-06-26T06:02:40;96092.28;;;24.37;100.00
5954;BME280;3002;42.642;24.812;2023-06-26T06:05:07;96102.59;;;24.79;100.00
5954;BME280;3002;42.642;24.812;2023-06-26T06:07:33;96098.69;;;24.94;100.00
5954;BME280;3002;42.642;24.812;2023-06-26T06:09:59;96077.53;;;24.84;98.09
5954;BME280;3002;42.642;24.812;2023-06-26T06:12:25;96076.03;;;25.22;100.00
5954;BME280;3002;42.642;24.812;2023-06-26T06:14:51;96084.28;;;25.15;100.00
5954;BME280;3002;42.642;24.812;2023-06-26T06:17:17;96087.00;;;25.36;100.00
5954;BME280;3002;42.642;24.812;2023-06-26T06:19:43;96090.03;;;24.64;100.00
5954;BME280;3002;42.642;24.812;2023-06-26T06:22:08;96088.19;;;25.18;100.00
5954;BME280;3002;42.642;24.812;2023-06-26T06:24:34;96078.38;;;25.52;100.00
5954;BME280;3002;42.642;24.812;2023-06-26T06:26:59;96076.81;;;25.12;100.00
5954;BME280;3002;42.642;24.812;2023-06-26T06:29:25;96071.25;;;24.80;100.00
5954;BME280;3002;42.642;24.812;2023-06-26T06:31:50;96083.50;;;25.50;100.00
5954;BME280;3002;42.642;24.812;2023-06-26T06:34:16;96091.34;;;25.73;100.00
5954;BME280;3002;42.642;24.812;2023-06-26T06:36:42;96075.25;;;25.11;100.00
5954;BME280;3002;42.642;24.812;2023-06-26T06:39:07;96082.00;;;24.23;100.00
5954;BME280;3002;42.642;24.812;2023-06-26T06:41:33;96086.97;;;25.04;100.00
5954;BME280;3002;42.642;24.812;2023-06-26T06:43:58;96091.75;;;25.43;100.00
5954;BME280;3002;42.642;24.812;2023-06-26T06:46:24;96093.66;;;25.60;100.00
5954;BME280;3002;42.642;24.812;2023-06-26T06:48:52;96085.44;;;25.57;100.00
5954;BME280;3002;42.642;24.812;2023-06-26T06:51:17;96092.50;;;25.79;100.00
5954;BME280;3002;42.642;24.812;2023-06-26T06:53:43;96076.41;;;25.81;100.00
5954;BME280;3002;42.642;24.812;2023-06-26T06:56:08;96096.44;;;25.75;100.00
5954;BME280;3002;42.642;24.812;2023-06-26T06:58:34;96069.72;;;25.04;100.00
5954;BME280;3002;42.642;24.812;2023-06-26T07:01:01;96090.91;;;25.60;100.00
5954;BME280;3002;42.642;24.812;2023-06-26T07:03:29;96095.22;;;25.94;100.00
5954;BME280;3002;42.642;24.812;2023-06-26T07:05:55;96091.28;;;26.09;100.00
5954;BME280;3002;42.642;24.812;2023-06-26T07:08:21;96081.94;;;25.49;100.00
5954;BME280;3002;42.642;24.812;2023-06-26T07:10:46;96091.97;;;26.34;100.00
5954;BME280;3002;42.642;24.812;2023-06-26T07:13:12;96089.72;;;26.95;98.11
5954;BME280;3002;42.642;24.812;2023-06-26T07:15:37;96090.41;;;27.10;96.22
5954;BME280;3002;42.642;24.812;2023-06-26T07:18:03;96097.13;;;26.18;100.00
5954;BME280;3002;42.642;24.812;2023-06-26T07:20:28;96090.91;;;25.60;96.99
5954;BME280;3002;42.642;24.812;2023-06-26T07:22:53;96100.72;;;25.72;95.93
5954;BME280;3002;42.642;24.812;2023-06-26T07:25:19;96096.81;;;26.93;86.03
5954;BME280;3002;42.642;24.812;2023-06-26T07:27:44;96102.19;;;27.18;83.43
5954;BME280;3002;42.642;24.812;2023-06-26T07:30:10;96105.59;;;27.36;82.34
5954;BME280;3002;42.642;24.812;2023-06-26T07:32:36;96106.47;;;27.74;83.22
5954;BME280;3002;42.642;24.812;2023-06-26T07:35:02;96108.97;;;26.92;84.69
5954;BME280;3002;42.642;24.812;2023-06-26T07:37:28;96119.22;;;27.54;82.93
5954;BME280;3002;42.642;24.812;2023-06-26T07:39:53;96107.31;;;26.25;98.55
5954;BME280;3002;42.642;24.812;2023-06-26T07:42:19;96119.19;;;25.75;100.00
5954;BME280;3002;42.642;24.812;2023-06-26T07:44:44;96111.31;;;25.13;100.00
5954;BME280;3002;42.642;24.812;2023-06-26T07:47:10;96113.59;;;24.93;100.00
5954;BME280;3002;42.642;24.812;2023-06-26T07:49:36;96098.69;;;24.94;100.00
5954;BME280;3002;42.642;24.812;2023-06-26T07:52:03;96096.06;;;25.44;100.00
5954;BME280;3002;42.642;24.812;2023-06-26T07:54:28;96115.84;;;26.55;96.53
5954;BME280;3002;42.642;24.812;2023-06-26T07:57:00;96113.44;;;26.72;89.96
5954;BME280;3002;42.642;24.812;2023-06-26T07:59:27;96110.31;;;26.66;89.37
5954;BME280;3002;42.642;24.812;2023-06-26T08:01:54;96116.03;;;25.91;98.83
5954;BME280;3002;42.642;24.812;2023-06-26T08:04:21;96097.91;;;26.19;92.20
5954;BME280;3002;42.642;24.812;2023-06-26T08:06:48;96121.44;;;26.41;87.65
5954;BME280;3002;42.642;24.812;2023-06-26T08:09:14;96121.06;;;26.18;87.69
5954;BME280;3002;42.642;24.812;2023-06-26T08:11:40;96121.28;;;26.73;82.12
5954;BME280;3002;42.642;24.812;2023-06-26T08:14:05;96123.53;;;28.00;74.65
5954;BME280;3002;42.642;24.812;2023-06-26T08:16:31;96127.44;;;28.74;73.06
5954;BME280;3002;42.642;24.812;2023-06-26T08:18:56;96125.41;;;27.69;78.85
5954;BME280;3002;42.642;24.812;2023-06-26T08:21:22;96127.34;;;27.72;80.58
5954;BME280;3002;42.642;24.812;2023-06-26T08:23:47;96127.53;;;28.30;77.40
5954;BME280;3002;42.642;24.812;2023-06-26T08:26:13;96125.25;;;28.24;74.69
5954;BME280;3002;42.642;24.812;2023-06-26T08:28:39;96122.59;;;27.24;78.68
5954;BME280;3002;42.642;24.812;2023-06-26T08:31:04;96112.50;;;26.92;82.17
5954;BME280;3002;42.642;24.812;2023-06-26T08:33:30;96124.44;;;27.90;79.01
5954;BME280;3002;42.642;24.812;2023-06-26T08:35:55;96117.16;;;28.07;81.09
5954;BME280;3002;42.642;24.812;2023-06-26T08:38:21;96134.59;;;28.38;75.76
5954;BME280;3002;42.642;24.812;2023-06-26T08:40:48;96125.16;;;27.45;81.45
5954;BME280;3002;42.642;24.812;2023-06-26T08:43:13;96125.38;;;28.14;76.31
5954;BME280;3002;42.642;24.812;2023-06-26T08:45:38;96115.53;;;28.81;72.10
5954;BME280;3002;42.642;24.812;2023-06-26T08:48:07;96125.63;;;30.19;66.62
5954;BME280;3002;42.642;24.812;2023-06-26T08:50:34;96123.44;;;29.87;66.10
5954;BME280;3002;42.642;24.812;2023-06-26T08:53:17;96111.06;;;29.72;67.03
5954;BME280;3002;42.642;24.812;2023-06-26T08:55:46;96125.47;;;29.59;65.55
5954;BME280;3002;42.642;24.812;2023-06-26T08:58:14;96103.25;;;30.10;61.17
5954;BME280;3002;42.642;24.812;2023-06-26T09:00:40;96110.75;;;28.85;63.31
5954;BME280;3002;42.642;24.812;2023-06-26T09:03:06;96120.53;;;30.18;61.13
5954;BME280;3002;42.642;24.812;2023-06-26T09:05:32;96122.16;;;30.15;63.85
5954;BME280;3002;42.642;24.812;2023-06-26T09:07:58;96086.47;;;28.73;66.46
5954;BME280;3002;42.642;24.812;2023-06-26T09:10:24;96115.94;;;30.71;63.87
5954;BME280;3002;42.642;24.812;2023-06-26T09:12:50;96115.50;;;29.89;64.53
5954;BME280;3002;42.642;24.812;2023-06-26T09:15:15;96109.47;;;29.20;64.43
5954;BME280;3002;42.642;24.812;2023-06-26T09:17:44;96107.50;;;28.90;67.57
5954;BME280;3002;42.642;24.812;2023-06-26T09:20:09;96106.28;;;28.64;69.68
5954;BME280;3002;42.642;24.812;2023-06-26T09:22:42;96112.34;;;27.77;72.74
5954;BME280;3002;42.642;24.812;2023-06-26T09:25:09;96114.56;;;27.89;74.70
5954;BME280;3002;42.642;24.812;2023-06-26T09:27:35;96095.50;;;28.43;70.53
5954;BME280;3002;42.642;24.812;2023-06-26T09:30:05;96109.63;;;27.73;74.46
5954;BME280;3002;42.642;24.812;2023-06-26T09:32:35;96109.34;;;28.73;71.28
5954;BME280;3002;42.642;24.812;2023-06-26T09:35:02;96119.84;;;30.73;64.09
5954;BME280;3002;42.642;24.812;2023-06-26T09:37:28;96103.22;;;31.46;60.88
5954;BME280;3002;42.642;24.812;2023-06-26T09:39:54;96120.88;;;31.84;56.84
5954;BME280;3002;42.642;24.812;2023-06-26T09:42:19;96109.13;;;29.69;59.44
5954;BME280;3002;42.642;24.812;2023-06-26T09:44:46;96106.44;;;30.08;60.11
5954;BME280;3002;42.642;24.812;2023-06-26T09:47:19;96109.66;;;32.49;57.86
5954;BME280;3002;42.642;24.812;2023-06-26T09:49:44;96106.59;;;31.86;53.02
5954;BME280;3002;42.642;24.812;2023-06-26T09:52:14;96102.59;;;31.54;54.19
5954;BME280;3002;42.642;24.812;2023-06-26T09:54:40;96102.94;;;30.68;55.71
5954;BME280;3002;42.642;24.812;2023-06-26T09:57:10;96101.19;;;30.37;57.60
5954;BME280;3002;42.642;24.812;2023-06-26T09:59:36;96100.31;;;29.50;60.41
5954;BME280;3002;42.642;24.812;2023-06-26T10:02:03;96092.88;;;29.94;57.20
5954;BME280;3002;42.642;24.812;2023-06-26T10:04:28;96092.75;;;30.01;57.55
5954;BME280;3002;42.642;24.812;2023-06-26T10:06:57;96107.06;;;29.73;59.96
5954;BME280;3002;42.642;24.812;2023-06-26T10:09:23;96096.31;;;29.78;59.37
5954;BME280;3002;42.642;24.812;2023-06-26T10:11:57;96097.66;;;29.70;62.54
5954;BME280;3002;42.642;24.812;2023-06-26T10:14:27;96092.31;;;29.32;65.38
5954;BME280;3002;42.642;24.812;2023-06-26T10:16:58;96089.13;;;29.61;64.21
5954;BME280;3002;42.642;24.812;2023-06-26T10:19:25;96084.75;;;30.07;61.31
5954;BME280;3002;42.642;24.812;2023-06-26T10:21:55;96089.91;;;32.31;55.66
5954;BME280;3002;42.642;24.812;2023-06-26T10:24:22;96095.13;;;32.00;53.20
5954;BME280;3002;42.642;24.812;2023-06-26T10:26:50;96074.50;;;29.84;60.80
5954;BME280;3002;42.642;24.812;2023-06-26T10:29:19;96076.25;;;29.00;64.37
5954;BME280;3002;42.642;24.812;2023-06-26T10:31:51;96076.09;;;29.11;65.71
5954;BME280;3002;42.642;24.812;2023-06-26T10:34:18;96076.44;;;30.30;60.93
5954;BME280;3002;42.642;24.812;2023-06-26T10:36:44;96084.50;;;31.33;57.30
5954;BME280;3002;42.642;24.812;2023-06-26T10:39:09;96083.13;;;31.25;54.49
5954;BME280;3002;42.642;24.812;2023-06-26T10:41:41;96078.22;;;30.77;55.68
5954;BME280;3002;42.642;24.812;2023-06-26T10:44:11;96080.75;;;30.71;55.52
5954;BME280;3002;42.642;24.812;2023-06-26T10:46:55;96088.88;;;32.41;52.62
5954;BME280;3002;42.642;24.812;2023-06-26T10:49:28;96078.59;;;32.80;53.27
5954;BME280;3002;42.642;24.812;2023-06-26T10:51:55;96081.16;;;30.89;59.11
5954;BME280;3002;42.642;24.812;2023-06-26T10:54:28;96083.28;;;31.51;53.20
5954;BME280;3002;42.642;24.812;2023-06-26T10:56:55;96060.50;;;29.95;60.26
5954;BME280;3002;42.642;24.812;2023-06-26T10:59:25;96062.78;;;30.00;60.25
5954;BME280;3002;42.642;24.812;2023-06-26T11:01:58;96070.88;;;28.59;66.09
5954;BME280;3002;42.642;24.812;2023-06-26T11:07:20;96063.03;;;29.85;64.72
5954;BME280;3002;42.642;24.812;2023-06-26T11:10:00;96053.78;;;29.72;65.78
5954;BME280;3002;42.642;24.812;2023-06-26T11:12:43;96057.00;;;29.20;68.82
5954;BME280;3002;42.642;24.812;2023-06-26T11:15:10;96050.81;;;29.13;69.11
5954;BME280;3002;42.642;24.812;2023-06-26T11:17:36;96064.69;;;29.59;68.38
5954;BME280;3002;42.642;24.812;2023-06-26T11:20:09;96069.63;;;28.91;70.50
5954;BME280;3002;42.642;24.812;2023-06-26T11:22:37;96076.34;;;31.59;61.87
5954;BME280;3002;42.642;24.812;2023-06-26T11:25:04;96063.09;;;29.82;61.90
5954;BME280;3002;42.642;24.812;2023-06-26T11:27:42;96061.94;;;29.79;63.61
5954;BME280;3002;42.642;24.812;2023-06-26T11:30:10;96069.91;;;28.42;70.33
5954;BME280;3002;42.642;24.812;2023-06-26T11:32:39;96063.88;;;29.09;67.73
5954;BME280;3002;42.642;24.812;2023-06-26T11:35:05;96052.03;;;29.82;64.55
5954;BME280;3002;42.642;24.812;2023-06-26T11:37:32;96054.03;;;28.80;63.93
5954;BME280;3002;42.642;24.812;2023-06-26T11:39:57;96070.84;;;28.90;67.58
5954;BME280;3002;42.642;24.812;2023-06-26T11:42:23;96078.91;;;28.77;69.69
5954;BME280;3002;42.642;24.812;2023-06-26T11:44:50;96083.00;;;28.65;70.87
5954;BME280;3002;42.642;24.812;2023-06-26T11:47:18;96111.81;;;27.44;78.15
5954;BME280;3002;42.642;24.812;2023-06-26T11:49:44;96099.00;;;27.23;77.47
5954;BME280;3002;42.642;24.812;2023-06-26T11:52:10;96097.06;;;26.47;87.46
5954;BME280;3002;42.642;24.812;2023-06-26T11:54:35;96084.28;;;25.61;90.60
5954;BME280;3002;42.642;24.812;2023-06-26T11:57:01;96090.94;;;25.68;93.24
5954;BME280;3002;42.642;24.812;2023-06-26T11:59:34;96086.56;;;26.02;100.00
5954;BME280;3002;42.642;24.812;2023-06-26T12:02:04;96093.56;;;26.28;93.34
5954;BME280;3002;42.642;24.812;2023-06-26T12:04:30;96074.34;;;26.14;83.90
5954;BME280;3002;42.642;24.812;2023-06-26T12:06:56;96072.72;;;27.60;83.86
5954;BME280;3002;42.642;24.812;2023-06-26T12:09:24;96084.16;;;28.98;72.09
5954;BME280;3002;42.642;24.812;2023-06-26T12:11:53;96094.38;;;29.28;65.07
5954;BME280;3002;42.642;24.812;2023-06-26T12:14:20;96108.88;;;27.17;72.05
5954;BME280;3002;42.642;24.812;2023-06-26T12:16:47;96105.69;;;27.74;80.53
5954;BME280;3002;42.642;24.812;2023-06-26T12:19:13;96086.75;;;27.28;79.44
5954;BME280;3002;42.642;24.812;2023-06-26T12:24:12;96104.44;;;27.30;84.53
5954;BME280;3002;42.642;24.812;2023-06-26T12:26:41;96106.03;;;27.28;82.95
5954;BME280;3002;42.642;24.812;2023-06-26T12:29:13;96099.09;;;28.40;86.01
5954;BME280;3002;42.642;24.812;2023-06-26T12:31:40;96096.09;;;28.61;78.20
5954;BME280;3002;42.642;24.812;2023-06-26T12:34:11;96110.56;;;28.38;80.25
5954;BME280;3002;42.642;24.812;2023-06-26T12:36:45;96108.28;;;28.91;87.05
5954;BME280;3002;42.642;24.812;2023-06-26T12:39:11;96107.91;;;29.19;94.02
5954;BME280;3002;42.642;24.812;2023-06-26T12:41:53;96102.53;;;29.36;88.72
5954;BME280;3002;42.642;24.812;2023-06-26T12:44:29;96098.84;;;29.19;76.37
5954;BME280;3002;42.642;24.812;2023-06-26T12:46:57;96096.75;;;29.26;77.14
5954;BME280;3002;42.642;24.812;2023-06-26T12:49:36;96100.09;;;29.41;81.42
5954;BME280;3002;42.642;24.812;2023-06-26T12:52:04;96104.38;;;29.19;78.40
5954;BME280;3002;42.642;24.812;2023-06-26T12:54:29;96095.63;;;28.97;70.65
5954;BME280;3002;42.642;24.812;2023-06-26T12:56:55;96101.84;;;29.78;70.17
5954;BME280;3002;42.642;24.812;2023-06-26T12:59:21;96102.16;;;29.84;68.81
5954;BME280;3002;42.642;24.812;2023-06-26T13:01:47;96099.31;;;29.41;70.67
5954;BME280;3002;42.642;24.812;2023-06-26T13:04:13;96107.91;;;27.90;83.21
5954;BME280;3002;42.642;24.812;2023-06-26T13:06:39;96097.59;;;27.94;86.01
5954;BME280;3002;42.642;24.812;2023-06-26T13:09:04;96111.03;;;27.88;88.45
5954;BME280;3002;42.642;24.812;2023-06-26T13:11:31;96114.13;;;27.97;85.46
5954;BME280;3002;42.642;24.812;2023-06-26T13:13:57;96101.16;;;26.87;96.48
5954;BME280;3002;42.642;24.812;2023-06-26T13:16:22;96113.53;;;27.24;97.33